Time;durP1;ratioP1;P1;durP2;ratioP2;P2;SDS_P1;SDS_P2;PMS_P1;PMS_P2;Temp;Humidity;BMP_temperature;BMP_pressure;BME280_temperature;BME280_humidity;BME280_pressure;Samples;Min_cycle;Max_cycle;Signal;HPM_P1;HPM_P2
2023/05/15 00:01:31;;;;;;;3.80;2.10;;;15.50;99.90;;;;;;5093897;28;20412;-63
2023/05/15 00:03:58;;;;;;;3.60;2.17;;;15.50;99.90;;;;;;5093832;28;20109;-62
2023/05/15 00:06:25;;;;;;;3.22;2.08;;;15.50;99.90;;;;;;5075971;28;20105;-62
2023/05/15 00:08:51;;;;;;;4.78;2.40;;;15.40;99.90;;;;;;5093587;28;20390;-62
2023/05/15 00:11:19;;;;;;;3.15;2.00;;;15.40;99.90;;;;;;5075163;28;20044;-62
2023/05/15 00:13:45;;;;;;;2.75;1.67;;;15.40;99.90;;;;;;5093685;28;20040;-65
2023/05/15 00:16:12;;;;;;;3.70;2.08;;;15.40;99.90;;;;;;5075856;28;20044;-65
2023/05/15 00:18:39;;;;;;;3.22;2.08;;;15.40;99.90;;;;;;5093844;28;20044;-63
2023/05/15 00:21:06;;;;;;;3.80;2.40;;;15.30;99.90;;;;;;5093343;28;20051;-65
2023/05/15 00:23:33;;;;;;;4.60;1.90;;;15.30;99.90;;;;;;5075596;28;20469;-63
2023/05/15 00:25:59;;;;;;;3.40;2.42;;;15.30;99.90;;;;;;5093454;28;20032;-63
2023/05/15 00:28:26;;;;;;;4.18;2.50;;;15.30;99.90;;;;;;5093372;28;20036;-63
2023/05/15 00:30:54;;;;;;;3.35;2.30;;;15.30;99.90;;;;;;5093205;28;20047;-63
2023/05/15 00:33:21;;;;;;;3.70;2.22;;;15.20;99.90;;;;;;5075459;28;20083;-63
2023/05/15 00:35:48;;;;;;;4.68;2.20;;;15.20;99.90;;;;;;5075556;28;20076;-63
2023/05/15 00:38:15;;;;;;;3.42;2.28;;;15.20;99.90;;;;;;5093812;28;20117;-63
2023/05/15 00:40:42;;;;;;;3.15;2.28;;;15.20;99.90;;;;;;5075590;28;20471;-63
2023/05/15 00:43:09;;;;;;;4.70;2.40;;;15.20;99.90;;;;;;5075288;28;20052;-63
2023/05/15 00:45:36;;;;;;;3.63;2.15;;;15.20;99.90;;;;;;5093258;28;20082;-62
2023/05/15 00:48:03;;;;;;;3.10;2.40;;;15.20;99.90;;;;;;5093383;28;20044;-62
2023/05/15 00:50:29;;;;;;;3.90;2.33;;;15.30;99.90;;;;;;5093135;28;20123;-63
2023/05/15 00:52:56;;;;;;;4.22;2.55;;;15.20;99.90;;;;;;5093117;28;20044;-62
2023/05/15 00:55:23;;;;;;;6.57;2.30;;;15.20;99.90;;;;;;5078983;28;20070;-62
2023/05/15 00:57:50;;;;;;;2.92;2.50;;;15.20;99.90;;;;;;5096556;28;20051;-62
2023/05/15 01:00:17;;;;;;;4.78;2.83;;;15.20;99.90;;;;;;5096848;28;20094;-62
2023/05/15 01:02:44;;;;;;;5.28;2.70;;;15.20;99.90;;;;;;5078610;28;20052;-62
2023/05/15 01:05:12;;;;;;;3.50;2.30;;;15.20;99.90;;;;;;5078744;28;20046;-62
2023/05/15 01:07:39;;;;;;;6.05;2.60;;;15.10;99.90;;;;;;5078624;28;20421;-62
2023/05/15 01:10:06;;;;;;;3.58;2.40;;;15.10;99.90;;;;;;5096736;28;20036;-62
2023/05/15 01:12:32;;;;;;;4.40;2.60;;;15.10;99.90;;;;;;5096952;28;20375;-62
2023/05/15 01:14:59;;;;;;;3.38;2.25;;;15.10;99.90;;;;;;5096624;28;20386;-63
2023/05/15 01:17:26;;;;;;;3.50;2.42;;;15.10;99.90;;;;;;5078548;28;20044;-62
2023/05/15 01:19:53;;;;;;;2.60;1.80;;;15.10;99.90;;;;;;5096742;28;20080;-62
2023/05/15 01:22:20;;;;;;;3.50;2.40;;;15.10;99.90;;;;;;5096592;28;20097;-63
2023/05/15 01:24:47;;;;;;;2.67;1.77;;;15.10;99.90;;;;;;5078176;28;20089;-62
2023/05/15 01:27:14;;;;;;;3.88;1.80;;;15.00;99.90;;;;;;5096264;28;20039;-62
2023/05/15 01:29:40;;;;;;;3.80;2.15;;;15.00;99.90;;;;;;5096536;28;20071;-62
2023/05/15 01:32:07;;;;;;;3.85;1.85;;;15.00;99.90;;;;;;5078096;28;20048;-63
2023/05/15 01:34:34;;;;;;;3.08;1.50;;;14.90;99.90;;;;;;5078274;28;20047;-63
2023/05/15 01:37:01;;;;;;;4.85;1.52;;;14.90;99.90;;;;;;5096180;28;20472;-62
2023/05/15 01:39:27;;;;;;;4.40;1.75;;;14.90;99.90;;;;;;5096066;28;20471;-62
2023/05/15 01:41:54;;;;;;;3.88;1.67;;;14.90;99.90;;;;;;5078162;28;20383;-63
2023/05/15 01:44:21;;;;;;;6.63;1.83;;;14.90;99.90;;;;;;5077784;28;20040;-62
2023/05/15 01:46:48;;;;;;;4.63;2.15;;;14.80;99.90;;;;;;5096248;28;20074;-63
2023/05/15 01:49:15;;;;;;;3.10;1.58;;;14.80;99.90;;;;;;5077729;28;20036;-63
2023/05/15 01:51:43;;;;;;;4.10;1.20;;;14.80;99.90;;;;;;5077899;28;20048;-63
2023/05/15 01:54:10;;;;;;;2.53;1.20;;;14.80;99.90;;;;;;5095827;28;20032;-62
2023/05/15 01:56:37;;;;;;;4.45;1.55;;;14.80;99.90;;;;;;5095911;28;20075;-63
2023/05/15 01:59:04;;;;;;;4.50;1.20;;;14.80;99.90;;;;;;5077802;28;20054;-63
2023/05/15 02:01:30;;;;;;;2.30;1.38;;;14.80;99.90;;;;;;5095760;28;20032;-63
2023/05/15 02:03:57;;;;;;;2.85;1.55;;;14.70;99.90;;;;;;5077626;28;20123;-63
2023/05/15 02:06:24;;;;;;;4.45;1.30;;;14.70;99.90;;;;;;5077652;28;20047;-63
2023/05/15 02:08:51;;;;;;;3.17;1.63;;;14.60;99.90;;;;;;5095573;28;20032;-63
2023/05/15 02:11:19;;;;;;;4.25;1.88;;;14.60;99.90;;;;;;5077469;28;20051;-63
2023/05/15 02:13:46;;;;;;;3.22;1.77;;;14.50;99.90;;;;;;5077296;28;20093;-63
2023/05/15 02:16:13;;;;;;;3.05;1.90;;;14.50;99.90;;;;;;5095180;28;20122;-63
2023/05/15 02:18:40;;;;;;;3.30;1.92;;;14.50;99.90;;;;;;5095236;28;20040;-62
2023/05/15 02:21:07;;;;;;;3.85;2.13;;;14.40;99.90;;;;;;5077202;28;20056;-62
2023/05/15 02:23:34;;;;;;;3.88;2.30;;;14.40;99.90;;;;;;5077207;28;20048;-62
2023/05/15 02:26:01;;;;;;;4.93;2.55;;;14.30;99.90;;;;;;5076867;28;20052;-62
2023/05/15 02:28:28;;;;;;;5.05;2.38;;;14.20;99.90;;;;;;5095318;28;20040;-63
2023/05/15 02:30:56;;;;;;;5.50;2.67;;;14.20;99.90;;;;;;5094935;28;20036;-62
2023/05/15 02:33:22;;;;;;;4.35;2.58;;;14.20;99.90;;;;;;5095295;28;20389;-62
2023/05/15 02:35:51;;;;;;;4.93;2.58;;;14.20;99.90;;;;;;5095043;28;20036;-62
2023/05/15 02:38:17;;;;;;;3.55;2.40;;;14.20;99.90;;;;;;5076826;28;20078;-62
2023/05/15 02:40:44;;;;;;;4.38;2.50;;;14.20;99.90;;;;;;5094740;28;20062;-62
2023/05/15 02:43:11;;;;;;;5.65;2.70;;;14.20;99.90;;;;;;5095096;28;20403;-62
2023/05/15 02:45:38;;;;;;;4.20;2.70;;;14.20;99.90;;;;;;5094829;28;20040;-62
2023/05/15 02:48:05;;;;;;;4.95;2.67;;;14.20;99.90;;;;;;5076814;28;20130;-62
2023/05/15 02:50:32;;;;;;;4.45;2.83;;;14.10;99.90;;;;;;5094684;28;20132;-62
2023/05/15 02:52:58;;;;;;;3.58;2.47;;;14.10;99.90;;;;;;5094765;28;20115;-63
2023/05/15 02:55:25;;;;;;;6.30;2.75;;;14.20;99.90;;;;;;5094689;28;20051;-63
2023/05/15 02:57:52;;;;;;;5.53;2.80;;;14.10;99.90;;;;;;5094756;28;20042;-62
2023/05/15 03:00:19;;;;;;;4.90;2.90;;;14.10;99.90;;;;;;5076395;28;20063;-62
2023/05/15 03:02:46;;;;;;;4.50;2.67;;;14.10;99.90;;;;;;5076496;28;20135;-62
2023/05/15 03:05:12;;;;;;;3.97;2.63;;;14.10;99.90;;;;;;5094634;28;20051;-63
2023/05/15 03:07:40;;;;;;;4.00;2.80;;;14.10;99.90;;;;;;5075986;28;20036;-62
2023/05/15 03:10:07;;;;;;;4.18;3.00;;;14.10;99.90;;;;;;5094236;28;20497;-63
2023/05/15 03:12:33;;;;;;;4.70;2.88;;;14.00;99.90;;;;;;5076397;28;20081;-62
2023/05/15 03:15:00;;;;;;;4.30;3.10;;;14.00;99.90;;;;;;5076072;28;20044;-62
2023/05/15 03:17:27;;;;;;;3.92;3.33;;;13.90;99.90;;;;;;5093672;28;20372;-62
2023/05/15 03:19:55;;;;;;;4.85;4.25;;;13.90;99.90;;;;;;5075801;28;20407;-63
2023/05/15 03:22:22;;;;;;;5.65;4.10;;;13.80;99.90;;;;;;5076007;28;20127;-63
2023/05/15 03:24:48;;;;;;;7.55;3.90;;;13.80;99.90;;;;;;5094392;28;20036;-63
2023/05/15 03:27:15;;;;;;;4.95;4.05;;;13.80;99.90;;;;;;5093950;28;20090;-63
2023/05/15 03:29:42;;;;;;;5.20;3.83;;;13.70;99.90;;;;;;5075647;28;20036;-62
2023/05/15 03:32:09;;;;;;;5.20;3.88;;;13.70;99.90;;;;;;5075636;28;20043;-63
2023/05/15 03:34:36;;;;;;;4.63;3.67;;;13.70;99.90;;;;;;5093632;28;20108;-63
2023/05/15 03:37:05;;;;;;;5.18;3.80;;;13.70;99.90;;;;;;5093528;28;20044;-63
2023/05/15 03:39:32;;;;;;;6.28;3.75;;;13.60;99.90;;;;;;5094292;28;20070;-62
2023/05/15 03:41:59;;;;;;;4.30;3.78;;;13.60;99.90;;;;;;5093755;28;20036;-63
2023/05/15 03:44:26;;;;;;;5.88;3.40;;;13.60;99.90;;;;;;5075726;28;20122;-63
2023/05/15 03:46:52;;;;;;;4.95;3.40;;;13.60;99.90;;;;;;5093818;28;20122;-62
2023/05/15 03:49:19;;;;;;;4.05;3.40;;;13.70;99.90;;;;;;5075862;28;20383;-62
2023/05/15 03:51:46;;;;;;;5.38;3.30;;;13.60;99.90;;;;;;5093550;28;20075;-62
2023/05/15 03:54:13;;;;;;;4.88;3.60;;;13.50;99.90;;;;;;5094208;28;20218;-63
2023/05/15 03:56:39;;;;;;;4.43;3.40;;;13.50;99.90;;;;;;5075802;28;20079;-63
2023/05/15 03:59:07;;;;;;;5.57;3.45;;;13.50;99.90;;;;;;5094058;28;20456;-63
2023/05/15 04:01:34;;;;;;;4.88;3.60;;;13.50;99.90;;;;;;5093665;28;20047;-63
2023/05/15 04:04:16;;;;;;;6.60;3.92;;;13.50;99.90;;;;;;5093785;28;20040;-63
2023/05/15 04:06:43;;;;;;;5.40;3.95;;;13.50;99.90;;;;;;5093538;28;20086;-62
2023/05/15 04:09:10;;;;;;;4.70;4.03;;;13.50;99.90;;;;;;5093630;28;20528;-63
2023/05/15 04:11:36;;;;;;;4.78;4.28;;;13.50;99.90;;;;;;5093381;28;20082;-63
2023/05/15 04:14:03;;;;;;;4.93;4.10;;;13.30;99.90;;;;;;5075865;28;20490;-63
2023/05/15 04:16:30;;;;;;;5.45;4.40;;;13.30;99.90;;;;;;5093703;28;20498;-63
2023/05/15 04:18:57;;;;;;;7.35;4.90;;;13.30;99.90;;;;;;5075476;28;20048;-63
2023/05/15 04:21:24;;;;;;;7.63;5.28;;;13.20;99.90;;;;;;5093461;28;20109;-63
2023/05/15 04:23:50;;;;;;;7.90;5.28;;;13.20;99.90;;;;;;5093598;28;20040;-63
2023/05/15 04:26:17;;;;;;;6.70;5.10;;;13.10;99.90;;;;;;5075521;28;20123;-63
2023/05/15 04:28:44;;;;;;;6.72;5.82;;;13.10;99.90;;;;;;5096583;28;20036;-63
2023/05/15 04:31:28;;;;;;;6.47;5.22;;;13.10;99.90;;;;;;5097325;28;20036;-63
2023/05/15 04:33:55;;;;;;;5.72;5.20;;;13.00;99.90;;;;;;5097358;28;20040;-63
2023/05/15 04:36:22;;;;;;;5.95;5.35;;;13.00;99.90;;;;;;5079627;28;20043;-64
2023/05/15 04:38:48;;;;;;;6.07;5.00;;;13.00;99.90;;;;;;5097618;28;20098;-64
2023/05/15 04:41:15;;;;;;;6.00;5.40;;;13.00;99.90;;;;;;5079039;28;20143;-64
2023/05/15 04:43:42;;;;;;;7.18;5.65;;;12.90;99.90;;;;;;5097060;28;20074;-63
2023/05/15 04:46:09;;;;;;;5.90;5.28;;;12.90;99.90;;;;;;5097508;28;20032;-64
2023/05/15 04:48:35;;;;;;;7.88;6.18;;;12.90;99.90;;;;;;5097083;28;20036;-64
2023/05/15 04:51:02;;;;;;;8.68;5.40;;;12.80;99.90;;;;;;5096870;28;20044;-64
2023/05/15 04:53:29;;;;;;;7.32;5.28;;;12.70;99.90;;;;;;5097005;28;20043;-64
2023/05/15 04:55:56;;;;;;;6.95;5.30;;;12.60;99.90;;;;;;5096691;28;20047;-63
2023/05/15 04:58:22;;;;;;;8.35;5.53;;;12.50;99.90;;;;;;5096941;28;20122;-64
2023/05/15 05:00:49;;;;;;;9.18;5.18;;;12.30;99.90;;;;;;5096830;28;20395;-64
2023/05/15 05:03:16;;;;;;;9.90;5.20;;;12.20;99.90;;;;;;5097217;28;20044;-64
2023/05/15 05:05:43;;;;;;;6.93;5.28;;;12.20;99.90;;;;;;5097108;28;20147;-63
2023/05/15 05:08:10;;;;;;;9.18;5.30;;;12.20;99.90;;;;;;5079034;28;20094;-63
2023/05/15 05:10:36;;;;;;;9.13;5.03;;;12.10;99.90;;;;;;5096747;28;20391;-64
2023/05/15 05:13:03;;;;;;;9.02;5.57;;;12.10;99.90;;;;;;5096820;28;20119;-62
2023/05/15 05:15:30;;;;;;;9.27;6.00;;;12.00;99.90;;;;;;5096572;28;20055;-62
2023/05/15 05:17:57;;;;;;;8.82;4.60;;;12.00;99.90;;;;;;5078969;28;20044;-62
2023/05/15 05:20:24;;;;;;;5.65;4.13;;;12.00;99.90;;;;;;5074564;28;20053;-62
2023/05/15 05:22:51;;;;;;;6.13;3.85;;;11.80;99.90;;;;;;5076342;28;20040;-62
2023/05/15 05:25:18;;;;;;;6.65;4.25;;;11.70;99.90;;;;;;5076176;28;20509;-62
2023/05/15 05:27:44;;;;;;;10.30;5.32;;;11.70;99.90;;;;;;5075179;28;20044;-63
2023/05/15 05:30:11;;;;;;;9.43;4.60;;;11.60;99.90;;;;;;5075959;28;20036;-62
2023/05/15 05:32:38;;;;;;;7.40;3.97;;;11.60;99.90;;;;;;5076259;28;20075;-62
2023/05/15 05:35:05;;;;;;;6.88;4.05;;;11.50;99.90;;;;;;5076176;28;20049;-62
2023/05/15 05:37:31;;;;;;;6.43;3.95;;;11.50;99.90;;;;;;5076121;28;20040;-63
2023/05/15 05:39:58;;;;;;;8.93;3.50;;;11.50;99.90;;;;;;5075403;28;20413;-63
2023/05/15 05:42:25;;;;;;;7.10;3.60;;;11.40;99.90;;;;;;5075937;28;20123;-63
2023/05/15 05:44:52;;;;;;;6.28;3.45;;;11.40;99.90;;;;;;5074749;28;20095;-63
2023/05/15 05:47:19;;;;;;;8.13;3.15;;;11.40;99.90;;;;;;5076026;28;20064;-63
2023/05/15 05:49:46;;;;;;;5.88;2.88;;;11.30;99.90;;;;;;5074329;28;20064;-63
2023/05/15 05:52:14;;;;;;;6.20;2.95;;;11.30;99.90;;;;;;5075453;28;20036;-64
2023/05/15 05:54:41;;;;;;;10.57;3.10;;;11.30;99.90;;;;;;5075391;28;20479;-63
2023/05/15 05:57:08;;;;;;;6.40;2.85;;;11.30;99.90;;;;;;5075758;28;20072;-63
2023/05/15 05:59:36;;;;;;;6.65;3.25;;;11.20;99.90;;;;;;5075698;28;20449;-63
2023/05/15 06:02:02;;;;;;;8.18;3.70;;;11.20;99.90;;;;;;5075308;28;20047;-63
2023/05/15 06:04:29;;;;;;;9.02;3.03;;;11.30;99.90;;;;;;5075922;28;20437;-63
2023/05/15 06:06:57;;;;;;;8.52;2.63;;;11.20;99.90;;;;;;5075231;28;20070;-63
2023/05/15 06:09:23;;;;;;;8.50;2.97;;;11.20;99.90;;;;;;5075364;28;20045;-64
2023/05/15 06:11:50;;;;;;;10.10;3.33;;;11.30;99.90;;;;;;5075391;28;20106;-63
2023/05/15 06:14:17;;;;;;;10.23;2.88;;;11.20;99.90;;;;;;5074871;28;20056;-64
2023/05/15 06:16:45;;;;;;;7.28;2.95;;;11.20;99.90;;;;;;5057351;28;20140;-63
2023/05/15 06:19:12;;;;;;;9.20;3.05;;;11.30;99.90;;;;;;5077157;28;20086;-63
2023/05/15 06:21:39;;;;;;;10.95;2.97;;;11.30;99.90;;;;;;5095542;28;20063;-64
2023/05/15 06:24:05;;;;;;;9.70;3.03;;;11.30;99.90;;;;;;5095565;28;20035;-63
2023/05/15 06:26:32;;;;;;;7.55;2.80;;;11.30;99.90;;;;;;5095169;28;20036;-63
2023/05/15 06:28:59;;;;;;;6.05;2.45;;;11.40;99.90;;;;;;5095280;28;20051;-63
2023/05/15 06:31:26;;;;;;;7.55;2.65;;;11.40;99.90;;;;;;5095169;28;20036;-63
2023/05/15 06:33:53;;;;;;;7.95;2.40;;;11.30;99.90;;;;;;5094960;28;20517;-63
2023/05/15 06:36:19;;;;;;;8.10;2.60;;;11.30;99.90;;;;;;5076903;28;20083;-63
2023/05/15 06:38:46;;;;;;;8.05;2.60;;;11.30;99.90;;;;;;5095276;28;20044;-63
2023/05/15 06:41:13;;;;;;;10.68;3.13;;;11.30;99.90;;;;;;5094851;28;20050;-63
2023/05/15 06:43:40;;;;;;;8.90;2.75;;;11.30;99.90;;;;;;5094853;28;20135;-63
2023/05/15 06:46:06;;;;;;;9.65;2.45;;;11.40;99.90;;;;;;5094725;28;20101;-63
2023/05/15 06:48:33;;;;;;;10.02;2.80;;;11.40;99.90;;;;;;5095131;28;20447;-63
2023/05/15 06:51:00;;;;;;;8.43;2.67;;;11.40;99.90;;;;;;5093603;28;20097;-63
2023/05/15 06:53:27;;;;;;;10.90;2.60;;;11.40;99.90;;;;;;5094566;28;20036;-63
2023/05/15 06:55:53;;;;;;;11.70;3.05;;;11.40;99.90;;;;;;5094868;28;20044;-63
2023/05/15 06:58:20;;;;;;;8.85;2.72;;;11.50;99.90;;;;;;5094604;28;20055;-63
2023/05/15 07:00:47;;;;;;;7.78;2.53;;;11.60;99.90;;;;;;5094497;28;20126;-63
2023/05/15 07:03:15;;;;;;;8.98;2.38;;;11.60;99.90;;;;;;5094454;28;20039;-63
2023/05/15 07:05:42;;;;;;;7.03;2.13;;;11.50;99.90;;;;;;5094638;28;20048;-62
2023/05/15 07:08:09;;;;;;;8.02;2.40;;;11.50;99.90;;;;;;5094715;28;20044;-63
2023/05/15 07:10:35;;;;;;;13.00;2.65;;;11.60;99.90;;;;;;5094165;28;20085;-63
2023/05/15 07:13:02;;;;;;;5.47;1.67;;;11.60;99.90;;;;;;5094022;28;20399;-63
2023/05/15 07:15:29;;;;;;;8.65;1.98;;;11.50;99.90;;;;;;5093383;28;20044;-63
2023/05/15 07:17:56;;;;;;;9.55;2.38;;;11.40;99.90;;;;;;5094242;28;20048;-63
2023/05/15 07:20:23;;;;;;;7.43;2.00;;;11.40;99.90;;;;;;5093998;28;20065;-63
2023/05/15 07:22:53;;;;;;;6.60;1.75;;;11.40;99.90;;;;;;5085769;28;20398;-63
2023/05/15 07:25:22;;;;;;;8.48;2.55;;;11.30;99.90;;;;;;5113888;28;20043;-63
2023/05/15 07:27:50;;;;;;;8.50;2.15;;;11.40;99.90;;;;;;5113380;28;20387;-63
2023/05/15 07:30:16;;;;;;;4.75;1.73;;;11.50;99.90;;;;;;5097996;28;20040;-63
2023/05/15 07:32:43;;;;;;;7.15;1.85;;;11.50;99.90;;;;;;5093822;28;20385;-62
2023/05/15 07:35:13;;;;;;;7.40;1.70;;;11.50;99.90;;;;;;5093243;28;20040;-63
2023/05/15 07:37:40;;;;;;;5.88;1.80;;;11.40;99.90;;;;;;5084696;28;20098;-63
2023/05/15 07:40:07;;;;;;;6.78;1.60;;;11.40;99.90;;;;;;5089522;28;20493;-63
2023/05/15 07:42:33;;;;;;;6.10;1.90;;;11.50;99.90;;;;;;5084495;28;20043;-63
2023/05/15 07:45:00;;;;;;;9.15;1.73;;;11.50;99.90;;;;;;5101517;28;20070;-63
2023/05/15 07:47:27;;;;;;;10.32;2.38;;;11.50;99.90;;;;;;5093334;28;20036;-62
2023/05/15 07:49:54;;;;;;;10.98;2.22;;;11.60;99.90;;;;;;5093141;28;20098;-62
2023/05/15 07:52:21;;;;;;;6.82;1.80;;;11.60;99.90;;;;;;5093927;28;20391;-64
2023/05/15 07:54:48;;;;;;;5.53;1.67;;;11.70;99.90;;;;;;5095076;28;20514;-61
2023/05/15 07:57:15;;;;;;;7.25;1.83;;;11.70;99.90;;;;;;5113004;28;20506;-61
2023/05/15 07:59:41;;;;;;;4.93;1.90;;;11.70;99.90;;;;;;5104643;28;20044;-62
2023/05/15 08:02:08;;;;;;;5.82;1.35;;;11.80;99.90;;;;;;5094745;28;20438;-62
2023/05/15 08:04:35;;;;;;;6.80;1.63;;;11.80;99.90;;;;;;5100291;28;20062;-62
2023/05/15 08:07:02;;;;;;;6.18;1.60;;;11.90;99.90;;;;;;5100047;28;20376;-61
2023/05/15 08:09:28;;;;;;;9.20;1.92;;;12.00;99.90;;;;;;5098739;28;20127;-62
2023/05/15 08:11:55;;;;;;;6.38;1.65;;;12.10;99.90;;;;;;5097923;28;20036;-61
2023/05/15 08:14:22;;;;;;;3.58;1.60;;;12.10;99.90;;;;;;5094657;28;20421;-61
2023/05/15 08:16:50;;;;;;;8.23;1.40;;;12.20;99.90;;;;;;5081876;28;20140;-64
2023/05/15 08:19:18;;;;;;;9.05;1.92;;;12.30;99.90;;;;;;5104468;28;20044;-61
2023/05/15 08:21:45;;;;;;;5.70;1.60;;;12.30;99.90;;;;;;5065140;28;20066;-62
2023/05/15 08:24:11;;;;;;;6.88;1.55;;;12.40;99.90;;;;;;5106797;28;20097;-61
2023/05/15 08:26:38;;;;;;;6.63;1.50;;;12.50;99.90;;;;;;5099620;28;20047;-62
2023/05/15 08:29:05;;;;;;;6.07;1.35;;;12.60;99.90;;;;;;5081691;28;20044;-62
2023/05/15 08:31:32;;;;;;;9.20;2.13;;;12.70;99.90;;;;;;5110417;28;20036;-61
2023/05/15 08:33:59;;;;;;;5.15;1.50;;;12.70;99.90;;;;;;5119344;28;20043;-62
2023/05/15 08:36:26;;;;;;;8.43;2.08;;;12.80;99.90;;;;;;5100597;28;20044;-66
2023/05/15 08:38:52;;;;;;;5.65;1.55;;;12.90;99.90;;;;;;5099583;28;20050;-63
2023/05/15 08:41:20;;;;;;;5.05;1.80;;;13.00;99.90;;;;;;5099676;28;20495;-62
2023/05/15 08:44:05;;;;;;;;;;;13.00;99.90;;;;;;5100532;28;20044;-62
2023/05/15 08:46:32;;;;;;;4.85;1.25;;;13.10;99.90;;;;;;5119063;28;20378;-62
2023/05/15 08:48:58;;;;;;;7.47;1.52;;;13.00;99.80;;;;;;5119326;28;20122;-63
2023/05/15 08:51:25;;;;;;;6.22;1.60;;;13.00;99.30;;;;;;5105479;28;20543;-62
2023/05/15 08:53:52;;;;;;;6.15;1.50;;;13.00;99.40;;;;;;5099640;28;20477;-62
2023/05/15 08:56:19;;;;;;;6.07;1.40;;;13.00;99.20;;;;;;5099253;28;20043;-63
2023/05/15 08:58:46;;;;;;;6.63;1.55;;;13.10;99.70;;;;;;5099519;28;20395;-62
2023/05/15 09:01:13;;;;;;;4.45;1.27;;;13.20;98.80;;;;;;5099441;28;20040;-62
2023/05/15 09:03:39;;;;;;;6.43;1.60;;;13.10;98.40;;;;;;5119051;28;20055;-62
2023/05/15 09:06:06;;;;;;;5.72;1.50;;;13.10;97.70;;;;;;5118887;28;20035;-62
2023/05/15 09:08:33;;;;;;;9.05;1.60;;;13.10;97.70;;;;;;5100590;28;20040;-62
2023/05/15 09:11:00;;;;;;;4.03;1.55;;;13.20;97.40;;;;;;5119068;28;20074;-62
2023/05/15 09:13:26;;;;;;;6.40;1.88;;;13.30;97.00;;;;;;5092025;28;20040;-62
2023/05/15 09:15:53;;;;;;;6.00;1.60;;;13.40;96.90;;;;;;5095600;28;20044;-62
2023/05/15 09:18:20;;;;;;;6.70;1.30;;;13.30;97.50;;;;;;5115787;28;20048;-63
2023/05/15 09:20:47;;;;;;;7.53;1.70;;;13.30;97.80;;;;;;5108697;28;20166;-62
2023/05/15 09:23:13;;;;;;;4.97;1.33;;;13.30;95.80;;;;;;5115760;28;20043;-62
2023/05/15 09:25:41;;;;;;;5.03;1.20;;;13.20;94.20;;;;;;5115496;28;20543;-63
2023/05/15 09:28:08;;;;;;;4.72;1.20;;;13.30;94.80;;;;;;5114417;28;20036;-62
2023/05/15 09:30:34;;;;;;;6.47;1.52;;;13.50;95.10;;;;;;5102699;28;20036;-62
2023/05/15 09:33:02;;;;;;;7.35;1.67;;;13.50;95.50;;;;;;5077801;28;20036;-62
2023/05/15 09:35:29;;;;;;;5.60;1.45;;;13.60;94.70;;;;;;5095967;28;20056;-62
2023/05/15 09:37:56;;;;;;;7.63;1.40;;;13.60;94.80;;;;;;5109124;28;20051;-62
2023/05/15 09:40:23;;;;;;;6.00;1.45;;;13.70;94.80;;;;;;5114794;28;20067;-62
2023/05/15 09:42:50;;;;;;;8.32;1.52;;;13.70;95.30;;;;;;5096278;28;20097;-62
2023/05/15 09:45:17;;;;;;;8.05;1.40;;;13.80;94.90;;;;;;5096994;28;20036;-62
2023/05/15 09:47:44;;;;;;;5.32;1.05;;;13.90;94.40;;;;;;5095510;28;20040;-63
2023/05/15 09:50:10;;;;;;;7.25;1.55;;;13.50;94.10;;;;;;5100966;28;20035;-62
2023/05/15 09:52:37;;;;;;;7.03;1.40;;;13.50;93.60;;;;;;5115326;28;20070;-62
2023/05/15 09:55:04;;;;;;;6.00;1.58;;;13.60;95.10;;;;;;5115248;28;20043;-62
2023/05/15 09:57:31;;;;;;;7.72;1.55;;;13.70;94.70;;;;;;5115134;28;20036;-62
2023/05/15 09:59:57;;;;;;;6.53;1.27;;;13.80;94.30;;;;;;5113746;28;20093;-62
2023/05/15 10:02:26;;;;;;;3.30;1.10;;;13.70;94.50;;;;;;5114812;28;20039;-62
2023/05/15 10:04:54;;;;;;;8.32;1.70;;;13.60;94.80;;;;;;5096716;28;20539;-63
2023/05/15 10:07:21;;;;;;;6.55;1.48;;;13.70;93.90;;;;;;5114779;28;20039;-62
2023/05/15 10:09:48;;;;;;;6.00;1.17;;;13.80;94.60;;;;;;5114633;28;20454;-62
2023/05/15 10:12:15;;;;;;;4.57;1.65;;;13.90;93.80;;;;;;5096458;28;20048;-63
2023/05/15 10:14:41;;;;;;;8.70;1.52;;;14.00;93.30;;;;;;5094937;28;20431;-63
2023/05/15 10:17:08;;;;;;;5.65;1.80;;;13.90;92.50;;;;;;5095022;28;20044;-64
2023/05/15 10:19:35;;;;;;;6.40;1.88;;;13.90;92.70;;;;;;5094889;28;20080;-63
2023/05/15 10:22:16;;;;;;;5.03;1.33;;;14.00;92.30;;;;;;5094973;28;20059;-63
2023/05/15 10:24:42;;;;;;;5.80;1.60;;;14.00;92.80;;;;;;5088418;28;20122;-63
2023/05/15 10:27:09;;;;;;;6.55;1.33;;;14.00;92.50;;;;;;5114352;28;20456;-63
2023/05/15 10:29:36;;;;;;;5.72;1.38;;;13.90;91.10;;;;;;5114593;28;20092;-63
2023/05/15 10:32:03;;;;;;;7.38;1.67;;;14.00;93.10;;;;;;5114468;28;20047;-64
2023/05/15 10:34:30;;;;;;;4.30;1.75;;;14.10;92.40;;;;;;5114459;28;20040;-63
2023/05/15 10:36:56;;;;;;;4.38;1.15;;;14.10;91.80;;;;;;5114127;28;20050;-63
2023/05/15 10:39:23;;;;;;;5.22;1.45;;;14.00;90.80;;;;;;5114375;28;20085;-63
2023/05/15 10:41:50;;;;;;;9.15;1.77;;;13.90;91.60;;;;;;5114248;28;20054;-63
2023/05/15 10:44:16;;;;;;;8.88;1.75;;;14.00;91.30;;;;;;5104915;28;20600;-63
2023/05/15 10:46:43;;;;;;;8.05;1.50;;;14.00;91.70;;;;;;5107083;28;20055;-62
2023/05/15 10:49:10;;;;;;;9.93;1.45;;;14.10;92.20;;;;;;5095475;28;20039;-63
2023/05/15 10:51:39;;;;;;;7.85;1.60;;;14.20;90.90;;;;;;5094159;28;20040;-63
2023/05/15 10:54:05;;;;;;;5.05;1.40;;;14.20;91.50;;;;;;5113401;28;20032;-63
2023/05/15 10:56:32;;;;;;;6.60;1.30;;;14.10;91.70;;;;;;5099354;28;20051;-63
2023/05/15 10:58:59;;;;;;;6.00;1.52;;;14.10;91.20;;;;;;5094429;28;20495;-63
2023/05/15 11:01:26;;;;;;;8.32;1.65;;;14.20;91.30;;;;;;5093852;28;20455;-61
2023/05/15 11:03:53;;;;;;;8.30;1.92;;;14.30;91.90;;;;;;5093043;28;20453;-62
2023/05/15 11:06:21;;;;;;;8.98;1.90;;;14.50;92.30;;;;;;5093719;28;20051;-62
2023/05/15 11:08:49;;;;;;;7.63;1.48;;;14.50;92.30;;;;;;5094355;28;20115;-61
2023/05/15 11:11:16;;;;;;;6.40;1.23;;;14.60;92.30;;;;;;5094465;28;20040;-62
2023/05/15 11:13:42;;;;;;;8.75;1.83;;;14.50;92.30;;;;;;5094326;28;20060;-63
2023/05/15 11:16:09;;;;;;;5.95;1.42;;;14.60;92.50;;;;;;5075125;28;20039;-63
2023/05/15 11:18:39;;;;;;;8.95;1.50;;;14.60;92.50;;;;;;5094297;28;20036;-62
2023/05/15 11:21:06;;;;;;;4.72;1.40;;;14.60;92.50;;;;;;5092771;28;20127;-63
2023/05/15 11:23:32;;;;;;;4.75;1.40;;;14.70;92.00;;;;;;5094220;28;20040;-62
2023/05/15 11:26:02;;;;;;;3.60;1.33;;;14.80;92.40;;;;;;5093008;28;20036;-62
2023/05/15 11:28:29;;;;;;;8.48;1.88;;;14.80;92.40;;;;;;5112486;28;20130;-63
2023/05/15 11:30:57;;;;;;;5.22;1.30;;;14.90;92.40;;;;;;5108373;28;20081;-63
2023/05/15 11:33:24;;;;;;;5.95;1.83;;;14.80;92.30;;;;;;5094182;28;20047;-63
2023/05/15 11:35:51;;;;;;;5.47;1.38;;;14.60;92.90;;;;;;5092580;28;20127;-62
2023/05/15 11:38:19;;;;;;;3.53;1.05;;;14.50;92.50;;;;;;5093028;28;20044;-63
2023/05/15 11:40:46;;;;;;;4.18;1.13;;;14.50;93.40;;;;;;5092565;28;20040;-62
2023/05/15 11:43:12;;;;;;;4.40;1.20;;;14.60;93.50;;;;;;5094085;28;20127;-62
2023/05/15 11:45:39;;;;;;;3.72;1.30;;;14.70;93.10;;;;;;5093268;28;20487;-62
2023/05/15 11:48:06;;;;;;;5.03;1.48;;;14.80;93.10;;;;;;5093588;28;20085;-62
2023/05/15 11:50:33;;;;;;;5.53;1.38;;;14.90;93.00;;;;;;5093479;28;20475;-62
2023/05/15 11:52:59;;;;;;;7.00;1.42;;;15.00;93.30;;;;;;5093100;28;20040;-62
2023/05/15 11:55:26;;;;;;;6.35;1.30;;;15.00;92.90;;;;;;5093996;28;20068;-62
2023/05/15 11:57:53;;;;;;;3.15;1.27;;;15.00;92.50;;;;;;5095632;28;20044;-62
2023/05/15 12:00:20;;;;;;;3.28;1.05;;;14.90;92.60;;;;;;5113080;28;20405;-62
2023/05/15 12:02:47;;;;;;;3.72;1.38;;;14.90;92.40;;;;;;5103254;28;20399;-62
2023/05/15 12:05:13;;;;;;;4.82;1.60;;;14.90;91.60;;;;;;5075368;28;20415;-62
2023/05/15 12:07:40;;;;;;;3.15;1.13;;;14.80;91.70;;;;;;5092429;28;20126;-62
2023/05/15 12:10:07;;;;;;;3.80;1.10;;;15.00;91.90;;;;;;5093455;28;20090;-62
2023/05/15 12:12:34;;;;;;;3.53;1.42;;;15.20;92.50;;;;;;5093525;28;20491;-63
2023/05/15 12:15:01;;;;;;;4.53;1.08;;;15.20;92.00;;;;;;5092602;28;20436;-62
2023/05/15 12:17:27;;;;;;;3.85;0.93;;;15.10;91.80;;;;;;5095296;28;20041;-62
2023/05/15 12:19:54;;;;;;;5.00;1.27;;;15.00;91.80;;;;;;5110398;28;20126;-62
2023/05/15 12:22:21;;;;;;;5.05;1.10;;;15.00;92.50;;;;;;5093562;28;20517;-62
2023/05/15 12:24:48;;;;;;;4.45;1.20;;;15.00;92.70;;;;;;5075248;28;20475;-63
2023/05/15 12:27:15;;;;;;;4.20;1.52;;;15.10;93.10;;;;;;5101360;28;20071;-61
2023/05/15 12:29:41;;;;;;;3.05;1.58;;;15.00;93.00;;;;;;5097295;28;20076;-61
2023/05/15 12:32:08;;;;;;;3.13;1.40;;;14.90;93.00;;;;;;5092310;28;20093;-62
2023/05/15 12:34:35;;;;;;;3.65;1.08;;;15.00;92.80;;;;;;5093700;28;20398;-62
2023/05/15 12:37:02;;;;;;;6.82;1.30;;;15.10;93.40;;;;;;5092318;28;20032;-62
2023/05/15 12:39:29;;;;;;;3.35;1.20;;;15.20;93.50;;;;;;5093428;28;20402;-63
2023/05/15 12:41:56;;;;;;;4.60;1.30;;;15.30;93.40;;;;;;5092051;28;20036;-63
2023/05/15 12:44:23;;;;;;;5.00;1.33;;;15.10;92.90;;;;;;5093366;28;20552;-63